createdAt,value
2023-02-06T00:01:05.053Z,14.40
2023-02-06T00:03:44.880Z,15.30
2023-02-06T00:06:13.987Z,14.90
2023-02-06T00:08:42.849Z,15.40
2023-02-06T00:11:16.991Z,14.80
2023-02-06T00:13:46.318Z,15.20
2023-02-06T00:16:19.316Z,14.97
2023-02-06T00:18:47.948Z,15.10
2023-02-06T00:21:20.319Z,15.47
2023-02-06T00:23:49.357Z,15.47
2023-02-06T00:26:23.306Z,17.73
2023-02-06T00:28:52.011Z,15.20
2023-02-06T00:31:20.676Z,14.83
2023-02-06T00:33:49.276Z,14.90
2023-02-06T00:36:18.776Z,14.97
2023-02-06T00:38:47.226Z,15.30
2023-02-06T00:41:15.606Z,14.80
2023-02-06T00:43:45.421Z,15.00
2023-02-06T00:46:13.829Z,14.80
2023-02-06T00:48:43.187Z,15.23
2023-02-06T00:51:11.535Z,15.30
2023-02-06T00:53:40.190Z,14.93
2023-02-06T00:56:08.766Z,15.40
2023-02-06T00:58:37.279Z,15.30
2023-02-06T01:01:07.053Z,17.40
2023-02-06T01:03:35.522Z,15.60
2023-02-06T01:06:04.092Z,15.80
2023-02-06T01:08:32.433Z,15.50
2023-02-06T01:11:01.238Z,15.70
2023-02-06T01:13:29.818Z,15.40
2023-02-06T01:15:58.366Z,15.77
2023-02-06T01:18:28.264Z,15.60
2023-02-06T01:20:56.711Z,15.70
2023-02-06T01:23:26.058Z,15.60
2023-02-06T01:25:54.308Z,16.10
2023-02-06T01:28:22.654Z,16.00
2023-02-06T01:30:51.472Z,15.80
2023-02-06T01:33:19.727Z,15.80
2023-02-06T01:35:56.485Z,16.80
2023-02-06T01:38:24.863Z,15.17
2023-02-06T01:40:58.635Z,15.03
2023-02-06T01:43:30.088Z,15.43
2023-02-06T01:45:58.730Z,18.53
2023-02-06T01:48:33.103Z,14.80
2023-02-06T01:51:04.869Z,15.10
2023-02-06T01:53:34.548Z,15.60
2023-02-06T01:56:06.171Z,15.47
2023-02-06T01:58:38.963Z,17.23
2023-02-06T02:01:08.668Z,16.30
2023-02-06T02:03:40.428Z,16.77
2023-02-06T02:06:16.566Z,15.63
2023-02-06T02:08:47.285Z,16.10
2023-02-06T02:11:19.443Z,14.90
2023-02-06T02:13:48.198Z,15.33
2023-02-06T02:16:21.057Z,15.27
2023-02-06T02:19:06.968Z,15.40
2023-02-06T02:22:23.620Z,15.40
2023-02-06T02:25:22.391Z,16.23
2023-02-06T02:28:17.659Z,16.33
2023-02-06T02:31:15.715Z,16.37
2023-02-06T02:34:16.343Z,16.00
2023-02-06T02:36:53.064Z,15.60
2023-02-06T02:39:28.963Z,15.50
2023-02-06T02:42:01.474Z,16.13
2023-02-06T02:44:36.822Z,16.53
2023-02-06T02:47:09.318Z,15.80
2023-02-06T02:49:39.387Z,15.40
2023-02-06T02:52:09.443Z,15.50
2023-02-06T02:54:37.670Z,15.50
2023-02-06T02:57:10.685Z,16.57
2023-02-06T02:59:44.829Z,14.90
2023-02-06T03:02:17.338Z,15.23
2023-02-06T03:04:49.982Z,15.37
2023-02-06T03:07:28.194Z,15.63
2023-02-06T03:10:07.520Z,15.00
2023-02-06T03:12:44.118Z,15.40
2023-02-06T03:15:22.058Z,16.17
2023-02-06T03:17:56.145Z,15.10
2023-02-06T03:20:25.811Z,15.03
2023-02-06T03:22:57.562Z,14.90
2023-02-06T03:25:31.701Z,15.20
2023-02-06T03:28:01.435Z,14.63
2023-02-06T03:30:31.744Z,15.07
2023-02-06T03:33:07.441Z,14.83
2023-02-06T03:35:40.709Z,15.10
2023-02-06T03:38:11.179Z,15.40
2023-02-06T03:40:43.551Z,15.73
2023-02-06T03:43:18.640Z,15.73
2023-02-06T03:45:50.962Z,15.20
2023-02-06T03:48:25.022Z,15.07
2023-02-06T03:50:55.266Z,15.60
2023-02-06T03:53:27.291Z,15.37
2023-02-06T03:56:00.630Z,15.73
2023-02-06T03:58:29.034Z,15.77
2023-02-06T04:00:57.944Z,14.70
2023-02-06T04:03:26.940Z,15.17
2023-02-06T04:05:55.300Z,14.50
2023-02-06T04:08:25.156Z,14.70
2023-02-06T04:10:53.562Z,14.77
2023-02-06T04:13:22.118Z,14.93
2023-02-06T04:15:50.523Z,14.40
2023-02-06T04:18:18.736Z,14.00
2023-02-06T04:20:47.224Z,13.80
2023-02-06T04:23:15.531Z,14.10
2023-02-06T04:25:45.510Z,14.03
2023-02-06T04:28:16.233Z,13.60
2023-02-06T04:30:44.682Z,14.30
2023-02-06T04:33:13.346Z,14.50
2023-02-06T04:35:41.932Z,14.80
2023-02-06T04:38:10.236Z,15.07
2023-02-06T04:40:38.747Z,15.40
2023-02-06T04:43:08.612Z,15.47
2023-02-06T04:45:37.231Z,14.77
2023-02-06T04:48:05.814Z,15.20
2023-02-06T04:50:34.449Z,14.50
2023-02-06T04:53:02.811Z,15.83
2023-02-06T04:55:31.215Z,15.03
2023-02-06T04:57:59.557Z,14.70
2023-02-06T05:00:29.243Z,14.80
2023-02-06T05:02:57.762Z,14.67
2023-02-06T05:05:26.341Z,14.20
2023-02-06T05:07:55.145Z,14.23
2023-02-06T05:10:23.673Z,14.50
2023-02-06T05:12:52.115Z,14.20
2023-02-06T05:15:20.669Z,14.17
2023-02-06T05:17:50.886Z,15.03
2023-02-06T05:20:19.803Z,14.50
2023-02-06T05:22:48.154Z,13.50
2023-02-06T05:25:16.923Z,14.00
2023-02-06T05:27:45.404Z,13.97
2023-02-06T05:30:15.336Z,14.10
2023-02-06T05:32:43.992Z,14.73
2023-02-06T05:35:14.086Z,14.10
2023-02-06T05:37:42.616Z,14.60
2023-02-06T05:40:12.741Z,15.37
2023-02-06T05:42:41.235Z,14.23
2023-02-06T05:45:12.100Z,14.00
2023-02-06T05:47:40.601Z,12.53
2023-02-06T05:50:09.609Z,13.17
2023-02-06T05:52:39.574Z,12.90
2023-02-06T05:55:09.096Z,14.77
2023-02-06T05:57:37.591Z,12.97
2023-02-06T06:00:07.077Z,13.87
2023-02-06T06:02:41.861Z,14.30
2023-02-06T06:05:10.866Z,14.37
2023-02-06T06:07:40.727Z,13.90
2023-02-06T06:10:10.537Z,13.00
2023-02-06T06:12:39.136Z,14.70
2023-02-06T06:15:08.471Z,13.70
2023-02-06T06:17:36.904Z,14.43
2023-02-06T06:20:05.673Z,16.90
2023-02-06T06:22:34.196Z,14.10
2023-02-06T06:25:05.171Z,15.87
2023-02-06T06:27:34.033Z,14.40
2023-02-06T06:30:02.848Z,14.10
2023-02-06T06:32:31.248Z,14.20
2023-02-06T06:34:59.739Z,14.00
2023-02-06T06:37:28.150Z,14.63
2023-02-06T06:39:56.909Z,14.13
2023-02-06T06:42:27.006Z,13.60
2023-02-06T06:44:55.718Z,14.87
2023-02-06T06:47:26.491Z,14.80
2023-02-06T06:49:54.727Z,14.00
2023-02-06T06:52:25.603Z,14.50
2023-02-06T06:54:54.936Z,14.10
2023-02-06T06:57:24.959Z,14.20
2023-02-06T06:59:57.109Z,14.40
2023-02-06T07:02:27.174Z,15.33
2023-02-06T07:04:57.610Z,13.80
2023-02-06T07:07:32.696Z,14.60
2023-02-06T07:10:02.384Z,13.37
2023-02-06T07:12:30.969Z,14.80
2023-02-06T07:15:00.814Z,15.10
2023-02-06T07:17:29.508Z,15.00
2023-02-06T07:19:59.734Z,15.47
2023-02-06T07:22:28.326Z,14.97
2023-02-06T07:24:58.805Z,14.97
2023-02-06T07:27:27.339Z,15.53
2023-02-06T07:29:56.106Z,16.40
2023-02-06T07:32:25.970Z,15.20
2023-02-06T07:34:54.490Z,15.33
2023-02-06T07:37:23.173Z,14.80
2023-02-06T07:39:51.633Z,15.03
2023-02-06T07:42:20.089Z,14.70
2023-02-06T07:44:59.612Z,14.23
2023-02-06T08:01:30.300Z,13.67
2023-02-06T08:12:59.143Z,13.70
2023-02-06T09:15:17.607Z,14.70
2023-02-06T11:49:06.358Z,12.80
2023-02-06T11:51:56.884Z,12.80
2023-02-06T11:54:29.863Z,13.20
2023-02-06T11:57:05.402Z,13.10
2023-02-06T11:59:35.660Z,13.30
2023-02-06T12:02:22.659Z,13.57
2023-02-06T12:04:54.855Z,13.27
2023-02-06T12:07:31.138Z,13.27
2023-02-06T12:09:59.599Z,17.73
2023-02-06T12:12:31.919Z,13.00
2023-02-06T12:15:23.650Z,12.80
2023-02-06T12:17:56.499Z,13.03
2023-02-06T12:20:29.126Z,13.13
2023-02-06T12:23:01.125Z,12.33
2023-02-06T12:25:34.854Z,14.57
2023-02-06T12:28:11.192Z,14.00
2023-02-06T12:30:44.445Z,15.00
2023-02-06T12:33:17.382Z,13.70
2023-02-06T12:35:50.267Z,12.90
2023-02-06T12:38:27.829Z,13.33
2023-02-06T12:41:19.665Z,14.10
2023-02-06T12:43:56.388Z,13.80
2023-02-06T12:46:27.642Z,13.47
2023-02-06T12:49:03.984Z,16.47
2023-02-06T12:51:38.102Z,13.80
2023-02-06T12:54:15.554Z,13.90
2023-02-06T12:56:48.241Z,13.77
2023-02-06T12:59:41.618Z,13.23
2023-02-06T13:02:25.968Z,13.70
2023-02-06T13:04:55.699Z,13.50
2023-02-06T13:07:28.321Z,13.70
2023-02-06T13:10:07.053Z,13.93
2023-02-06T13:12:35.828Z,14.03
2023-02-06T13:15:08.171Z,13.20
2023-02-06T13:17:38.260Z,13.30
2023-02-06T13:20:08.893Z,13.70
2023-02-06T13:22:43.939Z,13.23
2023-02-06T13:25:51.881Z,12.67
2023-02-06T13:28:42.242Z,15.73
2023-02-06T13:31:25.692Z,13.40
2023-02-06T13:34:04.384Z,13.10
2023-02-06T13:36:49.995Z,13.93
2023-02-06T13:39:32.361Z,14.47
2023-02-06T13:42:36.677Z,14.20
2023-02-06T13:45:06.256Z,16.70
2023-02-06T13:48:02.971Z,13.40
2023-02-06T13:50:47.602Z,15.93
2023-02-06T13:53:37.600Z,13.23
2023-02-06T13:56:41.146Z,12.70
2023-02-06T13:59:16.812Z,12.90
2023-02-06T14:01:46.283Z,12.90
2023-02-06T14:04:24.862Z,13.90
2023-02-06T14:07:12.587Z,13.00
2023-02-06T14:09:56.989Z,13.63
2023-02-06T14:12:44.516Z,15.23
2023-02-06T14:15:34.389Z,13.87
2023-02-06T14:18:24.239Z,13.20
2023-02-06T14:21:04.916Z,13.67
2023-02-06T14:23:45.614Z,13.57
2023-02-06T14:26:25.643Z,12.50
2023-02-06T14:29:04.546Z,14.50
2023-02-06T14:31:53.794Z,12.80
2023-02-06T14:34:43.774Z,13.00
2023-02-06T14:37:29.364Z,11.13
2023-02-06T14:40:04.378Z,12.20
2023-02-06T14:42:37.151Z,12.83
2023-02-06T14:45:15.844Z,12.97
2023-02-06T14:47:44.490Z,13.00
2023-02-06T14:50:19.917Z,12.73
2023-02-06T14:52:52.277Z,13.33
2023-02-06T14:55:31.584Z,14.00
2023-02-06T14:58:00.598Z,13.83
2023-02-06T15:00:31.815Z,13.70
2023-02-06T15:03:09.124Z,14.00
2023-02-06T15:05:37.771Z,13.77
2023-02-06T15:08:07.857Z,14.30
2023-02-06T15:10:39.958Z,13.53
2023-02-06T15:13:08.343Z,13.50
2023-02-06T15:15:42.352Z,13.80
2023-02-06T15:18:18.961Z,13.60
2023-02-06T15:20:53.332Z,14.73
2023-02-06T15:23:32.109Z,13.80
2023-02-06T15:26:06.576Z,13.87
2023-02-06T15:28:36.097Z,13.80
2023-02-06T15:31:06.646Z,13.70
2023-02-06T15:33:36.139Z,13.90
2023-02-06T15:36:05.598Z,13.13
2023-02-06T15:38:35.407Z,13.40
2023-02-06T15:41:31.122Z,13.07
2023-02-06T15:44:04.299Z,12.53
2023-02-06T15:46:38.082Z,13.20
2023-02-06T15:49:11.001Z,13.40
2023-02-06T15:51:49.955Z,13.00
2023-02-06T15:54:20.967Z,14.00
2023-02-06T15:56:52.150Z,13.50
2023-02-06T15:59:24.068Z,13.63
2023-02-06T16:01:56.607Z,13.80
2023-02-06T16:04:29.493Z,13.30
2023-02-06T16:07:06.360Z,13.00
2023-02-06T16:09:40.538Z,13.30
2023-02-06T16:12:09.573Z,13.40
2023-02-06T16:14:39.757Z,13.07
2023-02-06T16:17:42.853Z,13.10
2023-02-06T16:21:03.286Z,13.50
2023-02-06T16:23:46.217Z,13.27
2023-02-06T16:26:18.776Z,13.30
2023-02-06T16:29:00.438Z,13.33
2023-02-06T16:31:30.996Z,12.83
2023-02-06T16:34:03.289Z,13.10
2023-02-06T16:36:34.474Z,13.23
2023-02-06T16:39:04.964Z,13.10
2023-02-06T16:41:35.421Z,13.50
2023-02-06T16:44:05.722Z,13.50
2023-02-06T16:46:34.359Z,13.57
2023-02-06T16:49:02.646Z,13.50
2023-02-06T16:51:36.030Z,13.57
2023-02-06T16:54:08.330Z,13.70
2023-02-06T16:57:01.323Z,13.67
2023-02-06T16:59:29.770Z,13.90
2023-02-06T17:01:59.919Z,15.60
2023-02-06T17:05:14.072Z,13.67
2023-02-06T17:07:44.383Z,13.70
2023-02-06T17:10:14.883Z,14.17
2023-02-06T17:12:45.381Z,13.30
2023-02-06T17:15:15.046Z,15.90
2023-02-06T17:17:44.180Z,13.67
2023-02-06T17:20:26.043Z,13.30
2023-02-06T17:22:59.063Z,13.20
2023-02-06T17:26:26.318Z,13.90
2023-02-06T17:28:58.045Z,13.53
2023-02-06T17:31:26.883Z,13.57
2023-02-06T17:33:55.521Z,13.17
2023-02-06T17:36:29.575Z,13.20
2023-02-06T17:42:41.645Z,12.63
2023-02-06T17:45:11.505Z,13.50
2023-02-06T17:47:40.650Z,13.73
2023-02-06T17:50:10.781Z,14.30
2023-02-06T17:52:39.485Z,13.10
2023-02-06T17:55:35.160Z,13.20
2023-02-06T17:58:06.094Z,13.10
2023-02-06T18:00:35.015Z,13.00
2023-02-06T18:03:06.425Z,13.50
2023-02-06T18:05:56.289Z,13.40
2023-02-06T18:08:24.959Z,13.10
2023-02-06T18:10:55.472Z,13.03
2023-02-06T18:13:40.755Z,13.43
2023-02-06T18:16:34.912Z,13.30
2023-02-06T18:19:04.692Z,13.80
2023-02-06T18:21:47.833Z,13.60
2023-02-06T18:24:57.142Z,13.67
2023-02-06T18:27:30.925Z,13.60
2023-02-06T18:30:06.274Z,13.57
2023-02-06T18:32:49.189Z,13.30
2023-02-06T18:35:25.503Z,13.20
2023-02-06T18:37:54.322Z,13.27
2023-02-06T18:40:24.929Z,14.47
2023-02-06T18:42:54.760Z,13.10
2023-02-06T18:45:38.459Z,14.37
2023-02-06T18:48:10.113Z,13.33
2023-02-06T18:51:37.263Z,13.50
2023-02-06T18:54:11.139Z,13.70
2023-02-06T18:56:55.013Z,14.10
2023-02-06T18:59:25.843Z,15.20
2023-02-06T19:01:54.314Z,14.70
2023-02-06T19:04:23.056Z,13.60
2023-02-06T19:06:51.529Z,13.40
2023-02-06T19:09:20.767Z,14.50
2023-02-06T19:11:49.728Z,13.90
2023-02-06T19:14:33.366Z,13.70
2023-02-06T19:17:03.899Z,14.10
2023-02-06T19:19:32.645Z,13.80
2023-02-06T19:22:07.230Z,13.90
2023-02-06T19:24:41.198Z,16.30
2023-02-06T19:27:12.155Z,12.70
2023-02-06T19:29:45.270Z,15.50
2023-02-06T19:32:15.417Z,21.10
2023-02-06T19:34:45.428Z,14.70
2023-02-06T19:37:15.218Z,14.70
2023-02-06T19:39:53.799Z,15.00
2023-02-06T19:42:22.458Z,14.50
2023-02-06T19:44:57.360Z,15.10
2023-02-06T19:47:27.435Z,14.43
2023-02-06T19:49:56.467Z,14.23
2023-02-06T19:52:25.133Z,19.03
2023-02-06T19:54:53.926Z,15.00
2023-02-06T19:57:39.638Z,15.03
2023-02-06T20:00:12.684Z,15.80
2023-02-06T20:02:43.457Z,15.27
2023-02-06T20:05:12.146Z,15.87
2023-02-06T20:07:56.194Z,15.60
2023-02-06T20:10:25.604Z,14.90
2023-02-06T20:12:57.847Z,14.83
2023-02-06T20:15:33.937Z,18.63
2023-02-06T20:18:06.112Z,15.87
2023-02-06T20:20:35.825Z,15.50
2023-02-06T20:23:24.802Z,15.47
2023-02-06T20:25:54.884Z,15.57
2023-02-06T20:28:26.637Z,16.20
2023-02-06T20:30:55.607Z,14.53
2023-02-06T20:33:25.694Z,15.30
2023-02-06T20:35:54.890Z,15.10
2023-02-06T20:38:23.301Z,15.50
2023-02-06T20:40:54.078Z,15.83
2023-02-06T20:43:22.432Z,15.80
2023-02-06T20:45:52.466Z,16.93
2023-02-06T20:48:30.824Z,15.20
2023-02-06T20:51:00.367Z,15.87
2023-02-06T20:53:33.239Z,16.33
2023-02-06T20:56:02.005Z,15.30
2023-02-06T20:58:30.702Z,14.97
2023-02-06T21:00:59.283Z,15.00
2023-02-06T21:03:29.156Z,15.67
2023-02-06T21:05:59.066Z,15.30
2023-02-06T21:08:29.087Z,14.90
2023-02-06T21:10:57.650Z,15.20
2023-02-06T21:13:26.088Z,15.47
2023-02-06T21:15:56.752Z,14.90
2023-02-06T21:18:27.196Z,15.30
2023-02-06T21:20:58.649Z,14.53
2023-02-06T21:23:27.124Z,15.10
2023-02-06T21:25:59.386Z,14.90
2023-02-06T21:28:28.398Z,15.00
2023-02-06T21:31:01.684Z,14.40
2023-02-06T21:33:31.146Z,14.63
2023-02-06T21:36:02.927Z,14.97
2023-02-06T21:38:32.024Z,14.87
2023-02-06T21:41:05.519Z,15.27
2023-02-06T21:43:35.707Z,15.30
2023-02-06T21:46:05.308Z,16.23
2023-02-06T21:48:37.336Z,14.90
2023-02-06T21:51:12.082Z,16.60
2023-02-06T21:53:41.426Z,16.33
2023-02-06T21:56:13.340Z,16.00
2023-02-06T21:58:41.844Z,14.80
2023-02-06T22:01:15.335Z,14.90
2023-02-06T22:03:45.311Z,15.20
2023-02-06T22:06:16.690Z,15.00
2023-02-06T22:08:50.317Z,16.40
2023-02-06T22:11:23.937Z,16.90
2023-02-06T22:13:53.293Z,15.87
2023-02-06T22:16:23.934Z,16.80
2023-02-06T22:18:53.150Z,17.10
2023-02-06T22:21:25.422Z,16.07
2023-02-06T22:23:56.947Z,16.00
2023-02-06T22:26:26.374Z,15.23
2023-02-06T22:28:55.702Z,15.77
2023-02-06T22:31:26.564Z,16.10
2023-02-06T22:33:56.274Z,15.70
2023-02-06T22:36:28.687Z,15.70
2023-02-06T22:39:00.041Z,15.47
2023-02-06T22:41:29.460Z,15.80
2023-02-06T22:43:58.367Z,17.30
2023-02-06T22:46:28.491Z,17.57
2023-02-06T22:49:02.905Z,16.20
2023-02-06T22:51:33.126Z,15.83
2023-02-06T22:54:00.763Z,15.60
2023-02-06T22:56:36.233Z,16.40
2023-02-06T22:59:06.706Z,17.10
2023-02-06T23:01:37.300Z,15.53
2023-02-06T23:04:08.796Z,15.80
2023-02-06T23:06:39.536Z,17.47
2023-02-06T23:09:09.900Z,15.67
2023-02-06T23:11:38.409Z,16.33
2023-02-06T23:14:09.135Z,15.53
2023-02-06T23:16:37.813Z,16.53
2023-02-06T23:19:08.142Z,18.73
2023-02-06T23:21:41.690Z,15.13
2023-02-06T23:24:11.208Z,15.47
2023-02-06T23:26:42.067Z,15.80
2023-02-06T23:29:15.728Z,15.70
2023-02-06T23:31:45.220Z,16.60
2023-02-06T23:34:14.344Z,18.03
2023-02-06T23:36:44.893Z,15.97
2023-02-06T23:39:14.051Z,17.90
2023-02-06T23:41:42.664Z,16.40
2023-02-06T23:44:12.341Z,16.77
2023-02-06T23:46:41.897Z,17.20
2023-02-06T23:49:10.611Z,17.80
2023-02-06T23:51:39.250Z,16.43
2023-02-06T23:54:10.496Z,17.73
2023-02-06T23:56:39.488Z,16.40
2023-02-06T23:59:08.379Z,16.13
